Palembang
Home > Kaskuser Regional > INDONESIA > SUMATERA > Palembang > ▓▓▒▒ Radar Cuaca Palembang dan Sekitarnya ▒▒▓▓
Total Views: 14903 Share : Facebook ShareFacebook Twitter ShareTwitter Google+ ShareGoogle+
Page 12 of 64 | ‹ First  < 7 8 9 10 11 12 13 14 15 16 17 >  Last ›

2x3x60equals360 - 16/07/2011 11:34 AM
#221

cakmano cuaca palembang hari ini mang eek:
dianabazz - 16/07/2011 06:33 PM
#222

▓▓▒▒ Radar Cuaca Palembang dan Sekitarnya ▒▒▓▓
dianabazz - 16/07/2011 06:34 PM
#223

▓▓▒▒ Radar Cuaca Palembang dan Sekitarnya ▒▒▓▓
dianabazz - 16/07/2011 06:39 PM
#224

T A F O R


FTID32 WIPP 160420
TAF WIPP 160400Z 1606/1706 18010KT 9999 NSW SCT016 TEMPO 1621/1624 00000KT 3000 BR FEW012 BECMG 1701/1703 15007KT 9999 SCT015=


Bingung cara bacanya???bingungs
klik aja Cara membaca TAFOR
dianabazz - 16/07/2011 07:14 PM
#225

Quote:
Original Posted By mangcak85
sangat bermanfaat pak TS.......



Tapi mohon info juga update data Hotspot berhubung sdh musim panas...
sekalian mantau matau keadaan kebon ane pak TS dan mungkin jg bermanfaat untuk yg laen,...

sebelumnya terima kasih yaaa....iloveindonesiarecsel


klo buat Hotspot kebetulan belum ado di website mang
cubo bae ke SINI

atau cek di website DEPHUT
berikut mapping hotspot terakhir

Spoiler for Peta HOTSPOT versi DEPHUT
▓▓▒▒ Radar Cuaca Palembang dan Sekitarnya ▒▒▓▓
dianabazz - 16/07/2011 07:19 PM
#226
Potensi Tingkat Kesulitan Pengendalian Kebakaran
Spoiler for PIC
▓▓▒▒ Radar Cuaca Palembang dan Sekitarnya ▒▒▓▓


Spoiler for PIC
▓▓▒▒ Radar Cuaca Palembang dan Sekitarnya ▒▒▓▓


Spoiler for PIC
▓▓▒▒ Radar Cuaca Palembang dan Sekitarnya ▒▒▓▓
anjir - 16/07/2011 07:20 PM
#227

ujan lebat :dp
penyulang trip galo :dp
listrik mati :dp
▓▓▒▒ Radar Cuaca Palembang dan Sekitarnya ▒▒▓▓
dianabazz - 16/07/2011 07:23 PM
#228

Quote:
Original Posted By anjir
ujan lebat :dp
penyulang trip galo :dp
listrik mati :dp
▓▓▒▒ Radar Cuaca Palembang dan Sekitarnya ▒▒▓▓


maksudnyo apo mang? bingungs
dianabazz - 16/07/2011 07:24 PM
#229

Spoiler for pic
▓▓▒▒ Radar Cuaca Palembang dan Sekitarnya ▒▒▓▓


Spoiler for pic
▓▓▒▒ Radar Cuaca Palembang dan Sekitarnya ▒▒▓▓


Spoiler for pic
[center▓▓▒▒ Radar Cuaca Palembang dan Sekitarnya ▒▒▓▓[/center]
anjir - 16/07/2011 07:48 PM
#230

Quote:
Original Posted By dianabazz


maksudnyo apo mang? bingungs
gara2 ujan nah listrik mati kena gangguan \( \(▓▓▒▒ Radar Cuaca Palembang dan Sekitarnya ▒▒▓▓
pondok88 - 16/07/2011 08:54 PM
#231

Quote:
Original Posted By anjir
gara2 ujan nah listrik mati kena gangguan \( \(▓▓▒▒ Radar Cuaca Palembang dan Sekitarnya ▒▒▓▓


selamat bekerja shakehand

ngacir:
dianabazz - 17/07/2011 11:23 PM
#232

T A F O R


FTID32 WIPP 171030
TAF WIPP 171030Z 1712/1812 16007KT 9999 SCT015 TEMPO 1717/1721 5000 -RA FEW018CB SCT015 TEMPO 1721/1801 00000KT 3000 BR SCT012 BECMG 1801/1803 18007KT 9999 NSW SCT016 TEMPO 1808/1812 22005G16KT 4000 -TSRA FEW018CB BKN015=


Bingung cara bacanya???bingungs
klik aja Cara membaca TAFOR
dianabazz - 17/07/2011 11:24 PM
#233

▓▓▒▒ Radar Cuaca Palembang dan Sekitarnya ▒▒▓▓
dianabazz - 18/07/2011 02:35 PM
#234

▓▓▒▒ Radar Cuaca Palembang dan Sekitarnya ▒▒▓▓
dianabazz - 18/07/2011 02:38 PM
#235

T A F O R


FTID32 WIPP 180442
TAF WIPP 180430Z 1806/1906 10007KT 9999 SCT016 TEMPO 1806/1810 16005G16KT 5000 -TSRA FEW018CB BKN015 BECMG 1814/1816 5000 HZTEMPO 1820/1824 00000KT 1500 BR SCT012 BECMG 1901/1903 13006KT 9999 SCT016=


Bingung cara bacanya???bingungs
klik aja Cara membaca TAFOR
dianabazz - 19/07/2011 01:28 PM
#236

▓▓▒▒ Radar Cuaca Palembang dan Sekitarnya ▒▒▓▓
dianabazz - 19/07/2011 01:28 PM
#237

▓▓▒▒ Radar Cuaca Palembang dan Sekitarnya ▒▒▓▓
dianabazz - 19/07/2011 01:29 PM
#238

T A F O R


FTID32 WIPP 190450
TAF WIPP 190440Z 1906/2006 15008KT 9999 SCT016 TEMPO 1907/1911 10005G15KT 6000 -RA FEW018CB BKN015 TEMPO 1920/1924 00000KT 3000 HZ SCT012 BECMG 2001/2003 12007KT 9999 SCT015=


Bingung cara bacanya???bingungs
klik aja Cara membaca TAFOR
dianabazz - 19/07/2011 05:21 PM
#239

Dengan hormat, berikut kami sampaikan Peringatan Dini Sumatera Selatan tgl.19 Juli 2011 hasil pantauan citra radar cuaca hari ini pukul 14.30 WIB :


[*]Telah terjadi peningkatan aktivitas pembentukan awan hujan di Wil. Sumsel yang berpotensi terjadi hujan dengan intensitas sedang-lebat disertai angin lencang pukul 15.30 WIB di wil.Kab OKU Timur (Gumawang), Kab. OKI (Pematangpanggang, Wiralaga, Kayuagung, Tulungselapan), Kab. OI (Muarakuang) dan sekitarnya

[*]Kondisi ini diperkirakan masih berlangsung hingga pukul 18.00 WIB dan meluas ke sebagian wilayah Kab. Muara Enim dan sebagianWil. Kab. Banyuasin dan sekitarnya



Forecaster On Duty, Stasiun BMKG Palembang
dianabazz - 20/07/2011 09:05 AM
#240

T A F O R


FTID32 WIPP 192330
TAF WIPP 192330Z 2000/2024 15005KT 4000 HZ SCT015 BECMG 2001/2003 11008KT 9999 NSW SCT016 TEMPO 2007/2011 10005G15KT 6000 -RA FEW018CB BKN015 TEMPO 2020/2024 00000KT 3000 HZ SCT012=


Bingung cara bacanya???bingungs
klik aja Cara membaca TAFOR
Page 12 of 64 | ‹ First  < 7 8 9 10 11 12 13 14 15 16 17 >  Last ›
Home > Kaskuser Regional > INDONESIA > SUMATERA > Palembang > ▓▓▒▒ Radar Cuaca Palembang dan Sekitarnya ▒▒▓▓